Terminal Aerodrome Forecast
Issued by NWS Nashville, TN

Home | Current Version | Previous Version | Text Only | Print | Product List | Glossary On
Versions: 1 2 3 4 5 6 7 8 9 10 11 12 13 14
848
FTUS44 KOHX 281729
TAFCSV
TAF
KCSV 281729Z 2818/2918 VRB04KT P6SM SCT050
     FM281900 03005KT P6SM VCTS BKN040CB BKN100
     FM290000 VRB02KT P6SM SCT100
     FM290800 07001KT 2SM BR SKC
     FM291300 VRB03KT P6SM SCT250=

USA.gov is the U.S. government's official web portal to all federal, state and local government web resources and services.